Time;durP1;ratioP1;P1;durP2;ratioP2;P2;SDS_P1;SDS_P2;PMS_P1;PMS_P2;Temp;Humidity;BMP_temperature;BMP_pressure;BME280_temperature;BME280_humidity;BME280_pressure;Samples;Min_cycle;Max_cycle;Signal;HPM_P1;HPM_P2
2023/01/01 00:01:39;;;;;;;;;;;;;;;30.61;21.73;98491.03;4981209;28;19926;-94
2023/01/01 00:04:07;;;;;;;;;;;;;;;30.12;21.87;98483.75;4956886;29;19930;-93
2023/01/01 00:06:34;;;;;;;;;;;;;;;30.18;22.27;98482.66;4968500;28;19918;-93
2023/01/01 00:11:44;;;;;;;;;;;;;;;30.12;22.02;98480.91;4975763;28;19925;-93
2023/01/01 00:14:11;;;;;;;;;;;;;;;29.69;22.48;98487.41;4975336;28;19925;-93
2023/01/01 00:16:37;;;;;;;;;;;;;;;29.55;22.39;98485.94;4975773;28;20390;-92
2023/01/01 00:19:03;;;;;;;;;;;;;;;30.02;22.33;98497.88;4975614;28;19944;-93
2023/01/01 00:21:29;;;;;;;;;;;;;;;30.15;22.09;98492.13;4975479;28;20012;-92
2023/01/01 00:23:55;;;;;;;;;;;;;;;30.35;21.37;98500.22;4975173;28;19925;-93
2023/01/01 00:26:21;;;;;;;;;;;;;;;30.26;21.73;98494.50;4974186;28;19918;-92
2023/01/01 00:28:47;;;;;;;;;;;;;;;30.38;21.45;98499.31;4975428;28;19918;-92
2023/01/01 00:31:18;;;;;;;;;;;;;;;30.45;21.33;98496.19;4974614;28;19941;-92
2023/01/01 00:33:45;;;;;;;;;;;;;;;29.91;21.62;98493.88;4975341;28;19929;-93
2023/01/01 00:36:15;;;;;;;;;;;;;;;29.57;22.73;98499.63;4979591;28;20313;-93
2023/01/01 00:38:42;;;;;;;;;;;;;;;29.54;22.30;98504.16;4975502;28;20016;-92
2023/01/01 00:41:08;;;;;;;;;;;;;;;29.51;22.30;98515.59;4977178;28;19925;-93
2023/01/01 00:43:34;;;;;;;;;;;;;;;29.83;22.31;98509.56;4974815;28;19918;-93
2023/01/01 00:46:00;;;;;;;;;;;;;;;30.08;21.68;98506.56;4975143;28;19924;-92
2023/01/01 00:48:27;;;;;;;;;;;;;;;30.06;22.04;98506.22;4990260;28;20302;-93
2023/01/01 00:50:53;;;;;;;;;;;;;;;29.74;22.03;98521.59;4989710;28;19961;-93
2023/01/01 00:53:19;;;;;;;;;;;;;;;29.82;21.68;98519.31;4990412;28;19918;-93
2023/01/01 00:55:46;;;;;;;;;;;;;;;29.85;21.79;98515.56;4973826;28;19918;-92
2023/01/01 00:58:13;;;;;;;;;;;;;;;29.43;22.49;98521.53;4971067;28;19962;-92
2023/01/01 01:00:39;;;;;;;;;;;;;;;29.83;22.04;98518.03;4962921;28;19965;-93
2023/01/01 01:03:05;;;;;;;;;;;;;;;29.88;21.74;98514.63;4973769;28;19928;-93
2023/01/01 01:05:32;;;;;;;;;;;;;;;29.90;21.30;98507.25;4957688;28;20351;-93
2023/01/01 01:07:59;;;;;;;;;;;;;;;30.16;21.44;98505.00;4975048;28;19914;-93
2023/01/01 01:10:27;;;;;;;;;;;;;;;30.27;21.59;98502.53;4973449;28;20290;-93
2023/01/01 01:12:53;;;;;;;;;;;;;;;30.07;21.32;98505.75;4973702;28;19918;-93
2023/01/01 01:15:19;;;;;;;;;;;;;;;30.02;21.14;98505.56;4971542;28;20374;-94
2023/01/01 01:17:45;;;;;;;;;;;;;;;29.57;21.79;98505.28;4955371;28;19919;-93
2023/01/01 01:20:12;;;;;;;;;;;;;;;28.84;22.38;98515.97;4956473;28;19950;-94
2023/01/01 01:22:38;;;;;;;;;;;;;;;28.79;22.58;98508.06;4966936;28;19922;-93
2023/01/01 01:25:05;;;;;;;;;;;;;;;28.72;22.79;98513.97;4986112;28;20008;-93
2023/01/01 01:27:31;;;;;;;;;;;;;;;28.92;22.52;98505.19;4996532;28;19921;-93
2023/01/01 01:29:57;;;;;;;;;;;;;;;29.00;22.41;98503.69;4978734;28;19922;-93
2023/01/01 01:32:23;;;;;;;;;;;;;;;29.11;22.64;98502.06;4976627;28;19957;-94
2023/01/01 01:34:49;;;;;;;;;;;;;;;29.33;21.92;98496.47;4964153;28;19918;-93
2023/01/01 01:37:16;;;;;;;;;;;;;;;29.45;21.90;98504.09;4957878;29;20463;-94
2023/01/01 01:39:42;;;;;;;;;;;;;;;29.30;21.79;98512.31;4959883;28;19954;-93
2023/01/01 01:42:14;;;;;;;;;;;;;;;29.34;21.77;98503.69;4959569;29;20013;-93
2023/01/01 01:44:54;;;;;;;;;;;;;;;29.69;21.39;98504.41;4959282;29;19926;-93
2023/01/01 01:47:37;;;;;;;;;;;;;;;29.69;21.42;98508.03;4959241;29;19919;-93
2023/01/01 01:50:09;;;;;;;;;;;;;;;28.78;22.54;98500.81;4966894;28;19919;-93
2023/01/01 01:52:36;;;;;;;;;;;;;;;27.80;23.89;98507.59;4973556;28;20005;-93
2023/01/01 01:55:04;;;;;;;;;;;;;;;27.86;23.75;98498.13;4958687;29;19918;-93
2023/01/01 01:57:31;;;;;;;;;;;;;;;27.84;23.45;98497.00;4973959;28;19919;-92
2023/01/01 01:59:58;;;;;;;;;;;;;;;28.12;22.95;98496.16;4977391;28;20271;-93
2023/01/01 02:02:35;;;;;;;;;;;;;;;28.74;23.10;98484.00;4958834;29;20032;-93
2023/01/01 02:05:01;;;;;;;;;;;;;;;29.49;22.02;98492.66;4958572;29;19998;-93
2023/01/01 02:07:28;;;;;;;;;;;;;;;29.48;21.97;98489.03;4976588;28;19918;-92
2023/01/01 02:09:55;;;;;;;;;;;;;;;29.27;21.84;98492.63;4993212;28;20381;-93
2023/01/01 02:12:21;;;;;;;;;;;;;;;29.62;22.10;98496.19;4997413;28;19972;-93
2023/01/01 02:14:47;;;;;;;;;;;;;;;29.91;21.62;98494.66;4979962;28;19941;-93
2023/01/01 02:17:39;;;;;;;;;;;;;;;30.12;21.20;98495.06;4979576;28;19925;-94
2023/01/01 02:20:25;;;;;;;;;;;;;;;29.89;21.33;98504.88;4994998;28;20370;-93
2023/01/01 02:23:03;;;;;;;;;;;;;;;29.44;21.83;98502.53;4995872;28;20374;-93
2023/01/01 02:25:48;;;;;;;;;;;;;;;29.94;21.38;98501.44;4988500;28;19918;-94
2023/01/01 02:28:32;;;;;;;;;;;;;;;30.39;21.33;98490.31;4997223;28;19965;-93
2023/01/01 02:31:00;;;;;;;;;;;;;;;30.57;20.70;98484.69;4979435;28;19922;-93
2023/01/01 02:33:27;;;;;;;;;;;;;;;30.56;20.64;98491.63;4995756;28;19944;-93
2023/01/01 02:36:00;;;;;;;;;;;;;;;30.42;20.53;98486.56;4997014;28;20293;-94
2023/01/01 02:38:29;;;;;;;;;;;;;;;30.24;20.32;98483.66;4997008;28;19924;-93
2023/01/01 02:40:58;;;;;;;;;;;;;;;30.16;20.70;98481.56;4971377;28;19981;-93
2023/01/01 02:43:24;;;;;;;;;;;;;;;29.69;22.12;98476.91;4995921;28;19925;-93
2023/01/01 02:45:52;;;;;;;;;;;;;;;29.92;20.94;98467.91;4979263;28;19922;-93
2023/01/01 02:48:36;;;;;;;;;;;;;;;29.86;20.84;98474.66;4996608;28;20396;-93
2023/01/01 02:51:08;;;;;;;;;;;;;;;29.61;21.34;98474.81;4979436;28;20385;-93
2023/01/01 02:53:36;;;;;;;;;;;;;;;29.78;21.48;98473.38;4996906;28;19921;-93
2023/01/01 02:56:40;;;;;;;;;;;;;;;29.97;20.88;98467.31;4979125;28;19922;-93
2023/01/01 03:01:57;;;;;;;;;;;;;;;30.44;20.62;98458.53;4992458;28;19933;-94
2023/01/01 03:04:35;;;;;;;;;;;;;;;30.44;20.60;98463.41;4995575;28;20328;-94
2023/01/01 03:07:07;;;;;;;;;;;;;;;30.31;20.52;98459.91;4982690;28;19918;-93
2023/01/01 03:09:42;;;;;;;;;;;;;;;29.62;21.15;98460.19;4996306;28;20370;-93
2023/01/01 03:12:11;;;;;;;;;;;;;;;29.81;21.00;98455.44;4996565;28;19968;-93
2023/01/01 03:14:37;;;;;;;;;;;;;;;29.29;21.25;98459.06;4990336;28;19965;-93
2023/01/01 03:17:03;;;;;;;;;;;;;;;29.44;21.18;98454.41;4991653;28;20289;-93
2023/01/01 03:19:34;;;;;;;;;;;;;;;29.24;21.47;98454.75;4996303;28;19918;-93
2023/01/01 03:22:11;;;;;;;;;;;;;;;29.67;21.14;98455.97;4996020;28;19925;-92
2023/01/01 03:24:49;;;;;;;;;;;;;;;29.42;21.23;98456.94;4995965;28;19925;-93
2023/01/01 03:27:18;;;;;;;;;;;;;;;29.56;20.94;98449.94;4996334;28;20378;-93
2023/01/01 03:29:46;;;;;;;;;;;;;;;29.61;20.97;98457.81;4995099;28;20016;-93
2023/01/01 03:32:18;;;;;;;;;;;;;;;29.87;20.55;98459.25;4986373;28;19926;-93
2023/01/01 03:34:49;;;;;;;;;;;;;;;29.84;20.49;98460.97;4978229;28;19918;-93
2023/01/01 03:37:22;;;;;;;;;;;;;;;29.66;20.90;98460.84;4996054;28;20021;-93
2023/01/01 03:39:53;;;;;;;;;;;;;;;29.49;21.09;98467.97;4995662;28;19917;-93
2023/01/01 03:42:45;;;;;;;;;;;;;;;29.79;21.15;98457.94;4982281;28;20034;-94
2023/01/01 03:45:23;;;;;;;;;;;;;;;30.09;20.25;98462.81;4971855;28;19918;-93
2023/01/01 03:47:50;;;;;;;;;;;;;;;30.06;20.16;98472.22;4976618;28;19925;-92
2023/01/01 03:50:16;;;;;;;;;;;;;;;29.70;20.34;98467.16;4977792;28;19925;-92
2023/01/01 03:52:45;;;;;;;;;;;;;;;29.22;21.09;98457.25;4994193;28;20009;-95
2023/01/01 03:55:28;;;;;;;;;;;;;;;29.44;20.88;98465.75;4994938;28;19922;-94
2023/01/01 03:57:57;;;;;;;;;;;;;;;29.39;20.78;98467.13;4998491;28;19918;-94
2023/01/01 04:00:27;;;;;;;;;;;;;;;29.47;20.92;98473.31;4988290;28;19937;-93
2023/01/01 04:02:56;;;;;;;;;;;;;;;29.72;20.82;98464.66;4974569;28;20334;-93
2023/01/01 04:05:22;;;;;;;;;;;;;;;29.72;20.53;98458.19;4989489;28;20338;-93
2023/01/01 04:07:50;;;;;;;;;;;;;;;29.78;20.11;98462.81;4985208;28;19919;-93
2023/01/01 04:10:16;;;;;;;;;;;;;;;29.89;20.30;98456.75;4975839;28;20298;-94
2023/01/01 04:12:47;;;;;;;;;;;;;;;29.86;20.13;98466.97;4959098;28;19922;-93
2023/01/01 04:15:13;;;;;;;;;;;;;;;29.83;20.31;98467.09;4977576;28;19930;-93
2023/01/01 04:17:39;;;;;;;;;;;;;;;29.82;20.55;98465.53;4977800;28;20376;-93
2023/01/01 04:20:06;;;;;;;;;;;;;;;29.61;20.34;98474.81;4995182;28;20004;-93
2023/01/01 04:22:32;;;;;;;;;;;;;;;29.35;20.50;98469.31;4971878;28;19981;-93
2023/01/01 04:24:58;;;;;;;;;;;;;;;29.04;21.19;98473.25;4990487;28;19922;-93
2023/01/01 04:27:24;;;;;;;;;;;;;;;29.49;20.43;98470.81;4977207;28;19914;-93
2023/01/01 04:29:50;;;;;;;;;;;;;;;29.54;20.50;98483.56;4980721;28;19929;-93
2023/01/01 04:32:16;;;;;;;;;;;;;;;29.10;21.17;98475.03;4975736;28;19914;-93
2023/01/01 04:34:43;;;;;;;;;;;;;;;29.04;20.88;98482.53;4975400;28;19925;-93
2023/01/01 04:37:09;;;;;;;;;;;;;;;28.81;21.43;98476.50;4975623;28;19925;-93
2023/01/01 04:39:35;;;;;;;;;;;;;;;28.54;21.38;98479.84;4976396;28;19918;-94
2023/01/01 04:42:01;;;;;;;;;;;;;;;28.70;21.53;98485.38;4975236;28;19922;-93
2023/01/01 04:44:29;;;;;;;;;;;;;;;29.19;20.96;98480.03;4975111;28;20057;-94
2023/01/01 04:46:55;;;;;;;;;;;;;;;29.37;20.60;98480.16;4975850;28;20286;-93
2023/01/01 04:49:21;;;;;;;;;;;;;;;29.12;20.84;98494.38;4973994;28;19968;-94
2023/01/01 04:51:47;;;;;;;;;;;;;;;29.06;20.98;98496.19;4958243;28;19918;-93
2023/01/01 04:54:13;;;;;;;;;;;;;;;29.70;20.68;98483.34;4975430;28;19973;-93
2023/01/01 04:56:40;;;;;;;;;;;;;;;30.08;20.24;98481.84;4979834;28;19918;-93
2023/01/01 04:59:06;;;;;;;;;;;;;;;30.40;19.94;98486.25;4978716;28;19922;-93
2023/01/01 05:01:32;;;;;;;;;;;;;;;30.45;19.13;98488.47;4975108;28;19918;-93
2023/01/01 05:03:59;;;;;;;;;;;;;;;29.87;20.10;98487.56;4975192;28;20290;-94
2023/01/01 05:06:25;;;;;;;;;;;;;;;30.02;20.06;98478.03;4987317;28;19988;-94
2023/01/01 05:08:55;;;;;;;;;;;;;;;29.97;20.67;98483.50;4994329;28;19926;-93
2023/01/01 05:11:26;;;;;;;;;;;;;;;29.91;19.73;98493.88;4994510;28;20370;-93
2023/01/01 05:13:53;;;;;;;;;;;;;;;29.54;20.01;98492.06;4969723;28;19981;-94
2023/01/01 05:16:20;;;;;;;;;;;;;;;29.50;19.99;98497.84;4975088;28;20495;-94
2023/01/01 05:18:47;;;;;;;;;;;;;;;29.28;20.51;98495.03;4993110;28;20297;-93
2023/01/01 05:21:18;;;;;;;;;;;;;;;29.66;21.31;98491.19;4986766;28;19932;-94
2023/01/01 05:23:44;;;;;;;;;;;;;;;30.01;20.82;98492.69;4985609;28;19922;-94
2023/01/01 05:26:11;;;;;;;;;;;;;;;30.15;19.82;98494.16;4974584;28;19960;-93
2023/01/01 05:28:37;;;;;;;;;;;;;;;30.18;19.79;98496.06;4976690;28;19928;-93
2023/01/01 05:31:07;;;;;;;;;;;;;;;30.26;19.35;98481.13;4986354;28;19922;-93
2023/01/01 05:33:34;;;;;;;;;;;;;;;30.40;19.72;98482.63;4975191;28;19922;-94
2023/01/01 05:36:00;;;;;;;;;;;;;;;30.02;19.69;98477.25;4974996;28;19926;-93
2023/01/01 05:38:26;;;;;;;;;;;;;;;30.00;19.49;98480.56;4957545;28;19918;-93
2023/01/01 05:40:52;;;;;;;;;;;;;;;30.30;19.65;98481.78;4956992;28;19929;-93
2023/01/01 05:43:19;;;;;;;;;;;;;;;30.37;19.26;98483.53;4982955;28;19922;-93
2023/01/01 05:45:45;;;;;;;;;;;;;;;30.09;19.72;98482.63;4976670;28;20290;-94
2023/01/01 05:48:11;;;;;;;;;;;;;;;29.91;20.26;98479.72;4984555;28;20009;-93
2023/01/01 05:50:37;;;;;;;;;;;;;;;29.76;19.91;98487.19;4994147;28;19925;-93
2023/01/01 05:53:03;;;;;;;;;;;;;;;29.87;20.31;98501.72;4976466;28;19922;-93
2023/01/01 05:55:29;;;;;;;;;;;;;;;29.65;19.53;98498.09;4976448;28;19953;-94
2023/01/01 05:57:56;;;;;;;;;;;;;;;28.77;20.93;98506.94;4987105;28;20001;-93
2023/01/01 06:00:22;;;;;;;;;;;;;;;28.96;20.68;98508.69;4957635;28;20026;-94
2023/01/01 06:02:50;;;;;;;;;;;;;;;28.93;20.19;98510.41;4972970;28;20314;-93
2023/01/01 06:05:16;;;;;;;;;;;;;;;28.37;22.07;98532.06;4982163;28;19918;-92
2023/01/01 06:07:42;;;;;;;;;;;;;;;28.18;21.88;98522.56;4975165;28;19925;-93
2023/01/01 06:10:08;;;;;;;;;;;;;;;28.35;21.09;98540.19;4961768;28;19922;-93
2023/01/01 06:12:34;;;;;;;;;;;;;;;28.68;21.16;98536.66;4996225;28;19977;-93
2023/01/01 06:15:00;;;;;;;;;;;;;;;28.87;20.01;98559.50;4997383;28;20365;-94
2023/01/01 06:17:26;;;;;;;;;;;;;;;28.53;21.27;98566.63;4997182;28;20429;-93
2023/01/01 06:19:52;;;;;;;;;;;;;;;28.79;21.15;98567.41;4997791;28;20366;-93
2023/01/01 06:22:18;;;;;;;;;;;;;;;28.71;21.02;98566.06;4995549;28;19968;-93
2023/01/01 06:24:44;;;;;;;;;;;;;;;28.36;22.12;98559.50;4997090;28;19964;-93
2023/01/01 06:27:10;;;;;;;;;;;;;;;29.31;21.25;98567.63;4997152;28;19921;-93
2023/01/01 06:29:36;;;;;;;;;;;;;;;28.55;22.19;98580.28;4996966;28;20377;-94
2023/01/01 06:32:03;;;;;;;;;;;;;;;28.47;21.43;98598.72;4996998;28;20065;-93
2023/01/01 06:34:29;;;;;;;;;;;;;;;28.20;22.58;98589.88;4997075;28;20028;-93
2023/01/01 06:36:55;;;;;;;;;;;;;;;27.80;22.81;98601.50;4996928;28;19925;-94
2023/01/01 06:39:21;;;;;;;;;;;;;;;28.36;21.46;98599.03;4985894;28;19917;-94
2023/01/01 06:41:47;;;;;;;;;;;;;;;28.33;22.74;98593.53;4976276;28;19922;-93
2023/01/01 06:44:13;;;;;;;;;;;;;;;27.89;22.83;98601.66;4977311;28;19929;-93
2023/01/01 06:46:39;;;;;;;;;;;;;;;28.80;21.74;98600.06;4977451;28;19915;-93
2023/01/01 06:49:08;;;;;;;;;;;;;;;28.53;21.56;98617.47;4977483;28;20027;-93
2023/01/01 06:51:41;;;;;;;;;;;;;;;28.16;22.67;98611.78;4977188;28;19915;-92
2023/01/01 06:54:08;;;;;;;;;;;;;;;27.39;23.05;98622.00;4976961;28;19953;-93
2023/01/01 06:56:34;;;;;;;;;;;;;;;27.07;23.90;98624.81;4980603;28;20008;-93
2023/01/01 06:59:00;;;;;;;;;;;;;;;27.45;23.49;98622.25;4982025;28;19992;-93
2023/01/01 07:01:28;;;;;;;;;;;;;;;28.55;22.30;98626.28;4989430;28;19918;-93
2023/01/01 07:03:55;;;;;;;;;;;;;;;29.39;21.77;98622.72;4996442;28;19917;-93
2023/01/01 07:06:22;;;;;;;;;;;;;;;29.91;20.64;98615.63;4976138;28;19922;-93
2023/01/01 07:08:48;;;;;;;;;;;;;;;29.15;21.40;98630.00;4978869;28;19922;-93
2023/01/01 07:11:14;;;;;;;;;;;;;;;29.19;21.31;98638.41;4999710;28;19949;-93
2023/01/01 07:13:40;;;;;;;;;;;;;;;29.16;22.21;98642.09;4988907;28;19922;-93
2023/01/01 07:16:06;;;;;;;;;;;;;;;29.28;21.53;98639.28;5000227;28;19918;-93
2023/01/01 07:18:32;;;;;;;;;;;;;;;28.55;22.55;98646.06;4996026;28;19918;-93
2023/01/01 07:21:00;;;;;;;;;;;;;;;28.73;22.19;98645.53;4994870;28;19914;-92
2023/01/01 07:23:27;;;;;;;;;;;;;;;29.40;21.96;98644.13;4994664;28;19921;-93
2023/01/01 07:25:53;;;;;;;;;;;;;;;29.92;21.22;98643.47;4994997;28;20370;-93
2023/01/01 07:28:20;;;;;;;;;;;;;;;29.96;21.72;98654.69;4995788;28;19921;-93
2023/01/01 07:30:47;;;;;;;;;;;;;;;29.39;21.74;98668.00;4989579;28;19924;-93
2023/01/01 07:33:15;;;;;;;;;;;;;;;29.42;21.84;98660.63;4976571;28;19914;-93
2023/01/01 07:35:43;;;;;;;;;;;;;;;29.62;21.70;98655.47;4975846;28;20020;-93
2023/01/01 07:38:10;;;;;;;;;;;;;;;29.43;21.53;98651.69;4959360;28;19918;-92
2023/01/01 07:40:36;;;;;;;;;;;;;;;29.54;21.13;98654.16;4975029;28;19918;-92
2023/01/01 07:43:02;;;;;;;;;;;;;;;29.39;21.80;98664.38;4976353;28;19930;-93
2023/01/01 07:45:28;;;;;;;;;;;;;;;29.71;21.14;98655.53;4992312;28;19918;-93
2023/01/01 07:47:56;;;;;;;;;;;;;;;29.24;21.98;98661.22;4978264;28;19918;-93
2023/01/01 07:50:22;;;;;;;;;;;;;;;29.02;22.20;98656.72;4976116;28;19922;-93
2023/01/01 07:52:49;;;;;;;;;;;;;;;29.40;21.52;98658.28;4975923;28;20275;-93
2023/01/01 07:55:18;;;;;;;;;;;;;;;29.48;21.40;98658.78;4976170;28;19925;-93
2023/01/01 07:57:45;;;;;;;;;;;;;;;29.20;21.98;98654.09;4989405;28;19924;-92
2023/01/01 08:00:12;;;;;;;;;;;;;;;29.69;22.06;98657.25;4990560;28;19924;-93
2023/01/01 08:02:39;;;;;;;;;;;;;;;28.98;23.25;98664.53;4995349;28;19964;-93
2023/01/01 08:05:05;;;;;;;;;;;;;;;29.35;22.08;98670.16;4979209;28;19922;-93
2023/01/01 08:07:31;;;;;;;;;;;;;;;29.69;21.67;98654.41;4977679;28;19945;-93
2023/01/01 08:09:57;;;;;;;;;;;;;;;29.72;21.57;98647.84;4977581;28;20040;-93
2023/01/01 08:12:24;;;;;;;;;;;;;;;29.89;21.60;98649.28;4977806;28;19922;-93
2023/01/01 08:14:50;;;;;;;;;;;;;;;29.37;21.98;98656.34;4993824;28;19929;-93
2023/01/01 08:17:16;;;;;;;;;;;;;;;29.45;21.92;98675.91;4977823;28;19949;-93
2023/01/01 08:19:43;;;;;;;;;;;;;;;30.00;21.43;98667.47;4994919;28;19917;-93
2023/01/01 08:22:10;;;;;;;;;;;;;;;30.53;21.34;98676.81;4993205;28;19964;-93
2023/01/01 08:24:36;;;;;;;;;;;;;;;30.89;21.71;98672.59;4994939;28;19918;-94
2023/01/01 08:27:02;;;;;;;;;;;;;;;30.92;21.24;98674.50;4988719;28;19929;-93
2023/01/01 08:29:28;;;;;;;;;;;;;;;30.69;22.00;98679.41;4975152;28;19925;-94
2023/01/01 08:31:54;;;;;;;;;;;;;;;30.69;22.11;98679.41;4994051;28;20305;-93
2023/01/01 08:34:20;;;;;;;;;;;;;;;30.74;22.46;98680.84;4994900;28;20464;-93
2023/01/01 08:36:46;;;;;;;;;;;;;;;30.87;22.41;98687.22;4994808;28;20433;-93
2023/01/01 08:39:12;;;;;;;;;;;;;;;31.10;22.17;98680.22;4976905;28;19922;-92
2023/01/01 08:41:38;;;;;;;;;;;;;;;30.54;22.44;98680.44;4994977;28;19926;-93
2023/01/01 08:44:04;;;;;;;;;;;;;;;30.56;22.74;98675.88;4991066;28;19921;-93
2023/01/01 08:46:30;;;;;;;;;;;;;;;30.38;21.92;98689.94;4994980;28;19949;-93
2023/01/01 08:48:56;;;;;;;;;;;;;;;30.13;22.34;98692.09;4994645;28;19925;-93
2023/01/01 08:51:22;;;;;;;;;;;;;;;30.22;23.72;98706.34;4977559;28;19918;-93
2023/01/01 08:53:48;;;;;;;;;;;;;;;30.30;22.97;98721.78;4994722;28;20290;-93
2023/01/01 08:56:14;;;;;;;;;;;;;;;30.69;22.17;98727.59;4984615;28;20397;-93
2023/01/01 08:58:41;;;;;;;;;;;;;;;29.05;23.20;98743.47;4977636;28;19972;-93
2023/01/01 09:01:08;;;;;;;;;;;;;;;25.49;30.15;98752.81;4994853;28;20366;-93
2023/01/01 09:03:34;;;;;;;;;;;;;;;27.04;25.86;98748.94;4994386;28;19925;-94
2023/01/01 09:06:01;;;;;;;;;;;;;;;28.69;24.06;98749.41;4994567;28;19918;-92
2023/01/01 09:08:27;;;;;;;;;;;;;;;29.23;23.65;98746.53;4994367;28;19922;-94
2023/01/01 09:10:56;;;;;;;;;;;;;;;28.46;26.71;98746.84;4994280;28;19933;-93
2023/01/01 09:13:22;;;;;;;;;;;;;;;27.49;26.99;98752.72;4994388;28;19925;-92
2023/01/01 09:15:48;;;;;;;;;;;;;;;28.31;23.26;98748.53;4977317;28;20509;-93
2023/01/01 09:18:14;;;;;;;;;;;;;;;28.84;23.03;98738.47;4989682;28;20291;-93
2023/01/01 09:20:40;;;;;;;;;;;;;;;28.46;23.18;98744.03;4974985;28;20458;-92
2023/01/01 09:23:07;;;;;;;;;;;;;;;29.22;22.47;98759.13;4975352;28;19999;-93
2023/01/01 09:25:34;;;;;;;;;;;;;;;29.83;21.87;98748.16;4957777;28;19924;-92
2023/01/01 09:28:01;;;;;;;;;;;;;;;29.85;22.41;98753.38;4980605;28;19922;-93
2023/01/01 09:30:27;;;;;;;;;;;;;;;28.04;25.11;98751.69;4995662;28;19921;-93
2023/01/01 09:32:53;;;;;;;;;;;;;;;29.18;22.75;98747.09;5010025;28;19918;-93
2023/01/01 09:35:19;;;;;;;;;;;;;;;30.18;22.37;98746.09;4994297;28;19964;-92
2023/01/01 09:37:45;;;;;;;;;;;;;;;30.73;20.63;98742.44;4994660;28;19918;-92
2023/01/01 09:40:35;;;;;;;;;;;;;;;30.99;20.68;98740.25;4994012;28;19930;-92
2023/01/01 09:43:17;;;;;;;;;;;;;;;30.33;20.92;98747.22;4991101;28;19957;-93
2023/01/01 09:45:58;;;;;;;;;;;;;;;29.90;22.32;98741.47;4993094;28;20333;-92
2023/01/01 09:48:26;;;;;;;;;;;;;;;29.07;22.85;98736.13;4997609;28;19926;-92
2023/01/01 09:50:52;;;;;;;;;;;;;;;29.41;22.39;98741.88;4980639;28;19922;-93
2023/01/01 09:53:27;;;;;;;;;;;;;;;29.15;22.23;98745.94;4980386;28;20293;-89
2023/01/01 09:55:57;;;;;;;;;;;;;;;29.33;22.09;98751.06;4997704;28;19922;-93
2023/01/01 09:58:25;;;;;;;;;;;;;;;28.94;22.57;98738.13;4995571;28;19981;-93
2023/01/01 10:00:53;;;;;;;;;;;;;;;29.57;22.19;98737.34;4986439;28;19921;-93
2023/01/01 10:03:22;;;;;;;;;;;;;;;29.37;22.66;98740.44;4996654;28;19917;-94
2023/01/01 10:06:00;;;;;;;;;;;;;;;29.92;21.70;98728.44;4988323;28;19921;-93
2023/01/01 10:08:41;;;;;;;;;;;;;;;30.49;20.80;98721.50;4997705;28;20301;-93
2023/01/01 10:11:10;;;;;;;;;;;;;;;31.12;21.25;98706.09;4996948;28;19926;-93
2023/01/01 10:13:45;;;;;;;;;;;;;;;31.11;20.73;98701.69;4980447;28;19922;-93
2023/01/01 10:16:17;;;;;;;;;;;;;;;31.15;20.88;98688.13;4997357;28;19921;-93
2023/01/01 10:18:45;;;;;;;;;;;;;;;31.31;21.19;98688.66;4996982;28;19965;-93
2023/01/01 10:21:14;;;;;;;;;;;;;;;31.25;21.28;98684.84;4979322;28;20001;-93
2023/01/01 10:23:48;;;;;;;;;;;;;;;31.45;20.49;98683.66;4977740;28;19953;-93
2023/01/01 10:26:15;;;;;;;;;;;;;;;30.63;22.24;98669.13;4976705;28;19921;-93
2023/01/01 10:28:56;;;;;;;;;;;;;;;29.81;23.15;98679.09;4961203;28;19922;-93
2023/01/01 10:31:43;;;;;;;;;;;;;;;28.93;23.98;98687.72;4991521;28;20020;-93
2023/01/01 10:34:12;;;;;;;;;;;;;;;30.25;22.23;98677.06;4997052;28;19917;-92
2023/01/01 10:36:38;;;;;;;;;;;;;;;30.68;21.71;98663.66;4991408;28;20013;-93
2023/01/01 10:39:04;;;;;;;;;;;;;;;31.46;20.61;98668.97;4977430;28;19918;-93
2023/01/01 10:41:30;;;;;;;;;;;;;;;31.62;20.82;98668.72;4977410;28;19926;-93
2023/01/01 10:43:56;;;;;;;;;;;;;;;32.07;20.57;98665.88;4977482;28;19918;-92
2023/01/01 10:46:23;;;;;;;;;;;;;;;31.56;21.14;98659.22;4984679;28;19918;-93
2023/01/01 10:49:10;;;;;;;;;;;;;;;31.13;23.49;98660.25;4995307;28;20014;-93
2023/01/01 10:51:43;;;;;;;;;;;;;;;31.52;21.30;98654.97;4997185;28;19918;-93
2023/01/01 10:54:24;;;;;;;;;;;;;;;31.45;20.94;98650.41;4985561;28;19940;-93
2023/01/01 10:56:52;;;;;;;;;;;;;;;31.88;20.75;98652.16;4977069;28;19965;-93
2023/01/01 10:59:32;;;;;;;;;;;;;;;32.35;20.04;98645.97;4977001;28;19941;-92
2023/01/01 11:02:18;;;;;;;;;;;;;;;32.83;19.12;98644.88;4975714;28;20021;-93
2023/01/01 11:04:44;;;;;;;;;;;;;;;32.64;20.36;98643.38;4989220;28;19918;-92
2023/01/01 11:07:17;;;;;;;;;;;;;;;33.18;19.49;98646.00;4979007;28;19917;-93
2023/01/01 11:09:46;;;;;;;;;;;;;;;33.49;19.66;98642.00;4996266;28;19961;-93
2023/01/01 11:12:17;;;;;;;;;;;;;;;33.73;19.93;98634.22;4977802;28;19981;-93
2023/01/01 11:14:49;;;;;;;;;;;;;;;33.97;18.37;98634.97;4975647;28;20012;-93
2023/01/01 11:17:22;;;;;;;;;;;;;;;33.57;18.76;98643.22;4975665;28;20379;-93
2023/01/01 11:19:49;;;;;;;;;;;;;;;33.90;19.31;98641.06;4978392;28;19935;-93
2023/01/01 11:22:33;;;;;;;;;;;;;;;34.21;18.41;98640.63;4996216;28;19918;-93
2023/01/01 11:25:01;;;;;;;;;;;;;;;34.02;18.03;98635.09;4996098;28;19917;-93
2023/01/01 11:27:29;;;;;;;;;;;;;;;34.20;17.98;98633.34;4994838;28;19953;-93
2023/01/01 11:30:14;;;;;;;;;;;;;;;33.91;18.64;98628.41;4995533;28;19924;-93
2023/01/01 11:32:40;;;;;;;;;;;;;;;34.08;18.55;98620.97;4995881;28;19917;-92
2023/01/01 11:35:14;;;;;;;;;;;;;;;34.30;19.43;98626.28;4995691;28;19928;-93
2023/01/01 11:37:41;;;;;;;;;;;;;;;34.55;18.62;98626.50;4995860;28;20418;-93
2023/01/01 11:40:15;;;;;;;;;;;;;;;34.63;18.64;98624.81;4978344;28;19922;-93
2023/01/01 11:42:45;;;;;;;;;;;;;;;34.90;17.90;98626.53;4995772;28;19953;-92
2023/01/01 11:45:38;;;;;;;;;;;;;;;34.97;18.22;98619.63;4986513;28;19926;-94
2023/01/01 11:48:11;;;;;;;;;;;;;;;35.09;18.22;98618.53;4977929;28;19918;-94
2023/01/01 11:50:38;;;;;;;;;;;;;;;35.10;18.57;98615.16;4995830;28;19925;-92
2023/01/01 11:53:25;;;;;;;;;;;;;;;35.31;19.47;98613.16;4995543;28;20386;-93
2023/01/01 11:55:52;;;;;;;;;;;;;;;35.46;18.42;98604.50;4977269;28;20350;-93
2023/01/01 11:58:37;;;;;;;;;;;;;;;35.51;18.73;98606.66;4995650;28;19918;-93
2023/01/01 12:01:10;;;;;;;;;;;;;;;35.60;18.81;98612.22;4994221;28;20004;-93
2023/01/01 12:03:40;;;;;;;;;;;;;;;35.14;18.67;98615.78;4977489;28;19921;-94
2023/01/01 12:06:15;;;;;;;;;;;;;;;35.29;19.05;98610.78;4997179;28;19914;-94
2023/01/01 12:08:45;;;;;;;;;;;;;;;35.43;19.06;98611.97;4995289;28;19926;-93
2023/01/01 12:11:28;;;;;;;;;;;;;;;35.45;18.89;98617.22;4995233;28;19926;-93
2023/01/01 12:14:03;;;;;;;;;;;;;;;35.24;18.33;98622.91;4977109;28;20489;-92
2023/01/01 12:16:50;;;;;;;;;;;;;;;35.34;18.62;98618.63;4977859;28;19968;-92
2023/01/01 12:19:22;;;;;;;;;;;;;;;34.19;21.48;98628.94;4974273;28;19957;-93
2023/01/01 12:21:53;;;;;;;;;;;;;;;33.98;19.50;98625.16;4992909;28;20409;-93
2023/01/01 12:24:20;;;;;;;;;;;;;;;34.62;19.20;98631.00;4995162;28;20302;-93
2023/01/01 12:26:49;;;;;;;;;;;;;;;34.21;19.61;98627.19;4993720;28;20294;-93
2023/01/01 12:29:15;;;;;;;;;;;;;;;34.40;19.34;98628.53;4995025;28;19918;-93
2023/01/01 12:32:03;;;;;;;;;;;;;;;34.72;19.20;98635.34;4980961;28;19980;-93
2023/01/01 12:34:32;;;;;;;;;;;;;;;33.99;21.10;98629.56;4994708;28;19924;-93
2023/01/01 12:36:58;;;;;;;;;;;;;;;34.08;19.16;98629.50;4993246;28;19924;-93
2023/01/01 12:39:24;;;;;;;;;;;;;;;33.77;21.46;98641.31;4994945;28;19980;-93
2023/01/01 12:42:02;;;;;;;;;;;;;;;31.67;22.03;98642.50;4997137;28;20021;-92
2023/01/01 12:44:46;;;;;;;;;;;;;;;31.69;22.42;98634.34;4995366;28;20293;-93
2023/01/01 12:47:31;;;;;;;;;;;;;;;31.75;24.87;98649.47;4993290;28;19918;-93
2023/01/01 12:50:10;;;;;;;;;;;;;;;32.40;22.03;98629.03;4985756;28;20289;-93
2023/01/01 12:52:36;;;;;;;;;;;;;;;33.16;20.97;98631.47;4989923;28;20071;-93
2023/01/01 12:55:20;;;;;;;;;;;;;;;33.47;19.93;98638.84;4975609;28;19926;-92
2023/01/01 12:58:05;;;;;;;;;;;;;;;32.84;21.04;98635.06;4974920;28;19961;-93
2023/01/01 13:00:31;;;;;;;;;;;;;;;33.12;19.73;98638.56;4987367;28;19969;-93
2023/01/01 13:02:59;;;;;;;;;;;;;;;32.82;19.89;98631.91;4994715;28;20348;-93
2023/01/01 13:05:36;;;;;;;;;;;;;;;32.87;19.85;98639.78;4994343;28;19917;-93